createdAt,value
2017-10-28T00:00:03.187Z,1027.79
2017-10-28T00:05:03.002Z,1027.82
2017-10-28T00:10:02.690Z,1027.8
2017-10-28T00:15:03.221Z,1027.69
2017-10-28T00:20:02.707Z,1027.55
2017-10-28T00:25:03.122Z,1027.39
2017-10-28T00:30:03.660Z,1027.32
2017-10-28T00:35:03.288Z,1027.2
2017-10-28T00:40:02.736Z,1027.07
2017-10-28T00:45:03.243Z,1027
2017-10-28T00:50:03.652Z,1026.92
2017-10-28T00:55:03.284Z,1026.86
2017-10-28T01:00:02.790Z,1026.83
2017-10-28T01:05:03.435Z,1026.73
2017-10-28T01:10:02.930Z,1026.62
2017-10-28T01:15:03.372Z,1026.53
2017-10-28T01:20:02.858Z,1026.54
2017-10-28T01:25:03.372Z,1026.45
2017-10-28T01:30:02.677Z,1026.25
2017-10-28T01:35:03.269Z,1026.08
2017-10-28T01:40:02.837Z,1025.95
2017-10-28T01:45:03.345Z,1025.82
2017-10-28T01:50:02.883Z,1025.66
2017-10-28T01:55:03.216Z,1025.49
2017-10-28T02:00:02.712Z,1025.31
2017-10-28T02:05:03.278Z,1025.16
2017-10-28T02:10:02.922Z,1025.13
2017-10-28T02:15:03.461Z,1025.03
2017-10-28T02:20:03.014Z,1025.11
2017-10-28T02:25:03.612Z,1025.09
2017-10-28T02:30:03.098Z,1025
2017-10-28T02:35:02.665Z,1024.64
2017-10-28T02:40:03.128Z,1024.62
2017-10-28T02:45:02.685Z,1024.54
2017-10-28T02:50:03.246Z,1024.28
2017-10-28T02:55:02.756Z,1024.2
2017-10-28T03:00:03.318Z,1024.03
2017-10-28T03:05:02.817Z,1024
2017-10-28T03:10:03.380Z,1023.82
2017-10-28T03:15:02.874Z,1023.76
2017-10-28T03:20:03.298Z,1023.52
2017-10-28T03:25:02.658Z,1023.43
2017-10-28T03:30:03.190Z,1023.49
2017-10-28T03:35:03.538Z,1023.54
2017-10-28T03:40:03.039Z,1023.38
2017-10-28T03:45:03.422Z,1023.3
2017-10-28T03:50:02.880Z,1023.36
2017-10-28T03:55:03.452Z,1023.48
2017-10-28T04:00:03.390Z,1023.48
2017-10-28T04:05:02.755Z,1023.44
2017-10-28T04:10:03.330Z,1023.4
2017-10-28T04:15:02.706Z,1023.37
2017-10-28T04:20:03.124Z,1023.35
2017-10-28T04:25:03.747Z,1023.05
2017-10-28T04:30:02.855Z,1022.85
2017-10-28T04:35:03.348Z,1022.75
2017-10-28T04:40:02.710Z,1022.68
2017-10-28T04:45:03.303Z,1022.64
2017-10-28T04:50:02.644Z,1022.64
2017-10-28T04:55:03.045Z,1022.59
2017-10-28T05:00:03.538Z,1022.36
2017-10-28T05:05:03.087Z,1022.43
2017-10-28T05:10:03.447Z,1022.05
2017-10-28T05:15:03.034Z,1022.23
2017-10-28T05:20:03.565Z,1022.2
2017-10-28T05:25:02.885Z,1022.16
2017-10-28T05:30:03.452Z,1021.91
2017-10-28T05:35:02.846Z,1021.77
2017-10-28T05:40:03.436Z,1021.76
2017-10-28T05:45:02.916Z,1021.68
2017-10-28T05:50:03.286Z,1021.48
2017-10-28T05:55:03.603Z,1021.5
2017-10-28T06:00:02.979Z,1021.48
2017-10-28T06:05:03.386Z,1021.53
2017-10-28T06:10:02.842Z,1021.39
2017-10-28T06:15:03.186Z,1021.31
2017-10-28T06:20:02.812Z,1021.46
2017-10-28T06:25:03.194Z,1021.37
2017-10-28T06:30:02.675Z,1021.29
2017-10-28T06:35:03.099Z,1021.26
2017-10-28T06:40:03.618Z,1021.2
2017-10-28T06:45:03.015Z,1021.03
2017-10-28T06:50:03.412Z,1020.96
2017-10-28T06:55:02.839Z,1020.96
2017-10-28T07:00:03.509Z,1021.03
2017-10-28T07:05:03.077Z,1020.96
2017-10-28T07:10:03.538Z,1020.88
2017-10-28T07:15:03.110Z,1020.83
2017-10-28T07:20:03.631Z,1020.55
2017-10-28T07:25:03.217Z,1020.57
2017-10-28T07:30:02.712Z,1020.68
2017-10-28T07:35:03.153Z,1020.7
2017-10-28T07:40:03.602Z,1021.06
2017-10-28T07:45:03.184Z,1021.16
2017-10-28T07:50:03.616Z,1021.02
2017-10-28T07:55:03.023Z,1020.96
2017-10-28T08:00:03.493Z,1020.94
2017-10-28T08:05:02.829Z,1020.8
2017-10-28T08:10:03.215Z,1020.96
2017-10-28T08:15:03.588Z,1020.86
2017-10-28T08:20:02.946Z,1020.77
2017-10-28T08:25:03.315Z,1020.69
2017-10-28T08:30:02.797Z,1020.62
2017-10-28T08:35:03.134Z,1020.61
2017-10-28T08:40:03.517Z,1020.63
2017-10-28T08:45:03.010Z,1020.41
2017-10-28T08:50:03.373Z,1020.45
2017-10-28T08:55:02.716Z,1020.41
2017-10-28T09:00:03.244Z,1020.17
2017-10-28T09:05:03.622Z,1020.21
2017-10-28T09:10:03.011Z,1020.22
2017-10-28T09:15:03.499Z,1020.05
2017-10-28T09:20:03.015Z,1019.94
2017-10-28T09:25:03.466Z,1019.85
2017-10-28T09:30:02.845Z,1019.8
2017-10-28T09:35:03.303Z,1019.91
2017-10-28T09:40:02.943Z,1019.87
2017-10-28T09:45:03.444Z,1019.84
2017-10-28T09:50:02.770Z,1019.85
2017-10-28T09:55:03.312Z,1019.84
2017-10-28T10:00:02.760Z,1020.03
2017-10-28T10:05:03.388Z,1019.93
2017-10-28T10:10:02.848Z,1019.86
2017-10-28T10:15:03.475Z,1019.87
2017-10-28T10:20:02.918Z,1019.72
2017-10-28T10:25:03.384Z,1019.56
2017-10-28T10:30:02.749Z,1019.57
2017-10-28T10:35:03.225Z,1019.41
2017-10-28T10:40:02.792Z,1019.18
2017-10-28T10:45:03.165Z,1019.16
2017-10-28T10:50:03.632Z,1019.04
2017-10-28T10:55:02.981Z,1019.04
2017-10-28T11:00:03.500Z,1018.8
2017-10-28T11:05:02.983Z,1018.93
2017-10-28T11:10:03.608Z,1018.93
2017-10-28T11:15:03.160Z,1018.91
2017-10-28T11:20:03.631Z,1018.76
2017-10-28T11:25:03.173Z,1018.68
2017-10-28T11:30:02.724Z,1018.58
2017-10-28T11:35:03.310Z,1018.57
2017-10-28T11:40:02.728Z,1018.46
2017-10-28T11:45:03.092Z,1018.19
2017-10-28T11:50:03.594Z,1018.07
2017-10-28T11:55:03.135Z,1017.82
2017-10-28T12:00:03.560Z,1017.52
2017-10-28T12:05:02.932Z,1017.51
2017-10-28T12:10:03.546Z,1017.61
2017-10-28T12:15:03.125Z,1017.55
2017-10-28T12:20:02.725Z,1017.43
2017-10-28T12:25:03.186Z,1017.11
2017-10-28T12:30:02.803Z,1017
2017-10-28T12:35:03.249Z,1017.17
2017-10-28T12:40:02.801Z,1017.04
2017-10-28T12:45:03.207Z,1017.08
2017-10-28T12:50:02.676Z,1016.99
2017-10-28T12:55:03.289Z,1016.75
2017-10-28T13:00:02.883Z,1016.8
2017-10-28T13:05:03.234Z,1016.67
2017-10-28T13:10:02.883Z,1016.68
2017-10-28T13:15:03.259Z,1016.89
2017-10-28T13:20:02.813Z,1016.42
2017-10-28T13:25:03.368Z,1016.36
2017-10-28T13:30:02.859Z,1016.31
2017-10-28T13:35:03.436Z,1016.13
2017-10-28T13:40:02.831Z,1016.11
2017-10-28T13:45:03.403Z,1015.96
2017-10-28T13:55:03.231Z,1016.11
2017-10-28T14:00:02.720Z,1015.94
2017-10-28T14:05:03.297Z,1015.96
2017-10-28T14:10:02.930Z,1016.01
2017-10-28T14:15:03.539Z,1015.98
2017-10-28T14:20:03.124Z,1015.96
2017-10-28T14:25:02.733Z,1015.97
2017-10-28T14:30:03.276Z,1015.95
2017-10-28T14:35:02.904Z,1016.01
2017-10-28T14:40:03.412Z,1015.77
2017-10-28T14:45:02.985Z,1015.75
2017-10-28T14:50:03.479Z,1015.7
2017-10-28T14:55:02.865Z,1015.58
2017-10-28T15:00:03.542Z,1015.53
2017-10-28T15:05:03.174Z,1015.44
2017-10-28T15:10:02.718Z,1015.32
2017-10-28T15:15:03.191Z,1015.35
2017-10-28T15:20:02.692Z,1015.19
2017-10-28T15:25:03.435Z,1015.04
2017-10-28T15:30:02.931Z,1014.91
2017-10-28T15:35:03.448Z,1014.93
2017-10-28T15:40:02.900Z,1014.89
2017-10-28T15:45:03.488Z,1014.87
2017-10-28T15:50:02.870Z,1014.9
2017-10-28T15:55:03.412Z,1014.81
2017-10-28T16:00:02.769Z,1014.86
2017-10-28T16:05:03.221Z,1014.52
2017-10-28T16:10:02.934Z,1014.46
2017-10-28T16:15:03.513Z,1014.41
2017-10-28T16:20:03.062Z,1014.42
2017-10-28T16:25:03.652Z,1014.37
2017-10-28T16:30:03.232Z,1014.09
2017-10-28T16:35:02.809Z,1014.03
2017-10-28T16:40:03.393Z,1013.96
2017-10-28T16:45:02.797Z,1013.63
2017-10-28T16:50:03.375Z,1013.54
2017-10-28T16:55:02.795Z,1013.59
2017-10-28T17:00:03.206Z,1013.5
2017-10-28T17:05:03.622Z,1013.52
2017-10-28T17:10:03.333Z,1013.33
2017-10-28T17:15:02.858Z,1013.4
2017-10-28T17:20:03.553Z,1013.15
2017-10-28T17:25:02.943Z,1013.13
2017-10-28T17:30:03.619Z,1013.18
2017-10-28T17:35:03.035Z,1013.11
2017-10-28T17:40:03.652Z,1012.97
2017-10-28T17:45:03.223Z,1013.01
2017-10-28T17:50:02.896Z,1012.93
2017-10-28T17:55:03.429Z,1012.86
2017-10-28T18:00:03.007Z,1012.69
2017-10-28T18:05:03.543Z,1012.84
2017-10-28T18:10:02.998Z,1012.86
2017-10-28T18:15:03.504Z,1012.71
2017-10-28T18:20:02.923Z,1012.57
2017-10-28T18:25:03.455Z,1012.39
2017-10-28T18:30:02.962Z,1012.44
2017-10-28T18:35:03.501Z,1012.34
2017-10-28T18:40:02.993Z,1012.22
2017-10-28T18:45:03.358Z,1012.06
2017-10-28T18:50:02.810Z,1011.93
2017-10-28T18:55:03.303Z,1011.9
2017-10-28T19:00:02.899Z,1011.77
2017-10-28T19:05:03.486Z,1011.66
2017-10-28T19:10:03.049Z,1011.72
2017-10-28T19:15:03.609Z,1011.59
2017-10-28T19:20:03.257Z,1011.17
2017-10-28T19:25:02.841Z,1011.29
2017-10-28T19:30:03.414Z,1011.23
2017-10-28T19:35:02.878Z,1011.03
2017-10-28T19:40:03.471Z,1010.89
2017-10-28T19:45:02.943Z,1010.72
2017-10-28T19:50:03.508Z,1010.61
2017-10-28T19:55:03.038Z,1010.39
2017-10-28T20:00:03.435Z,1010.29
2017-10-28T20:05:03.038Z,1010.2
2017-10-28T20:10:03.576Z,1009.8
2017-10-28T20:15:03.353Z,1009.91
2017-10-28T20:20:02.961Z,1009.77
2017-10-28T20:25:03.376Z,1009.89
2017-10-28T20:30:02.941Z,1009.74
2017-10-28T20:35:03.325Z,1009.76
2017-10-28T20:40:02.976Z,1009.73
2017-10-28T20:45:03.624Z,1009.67
2017-10-28T20:50:03.069Z,1009.76
2017-10-28T20:55:03.468Z,1009.63
2017-10-28T21:00:02.950Z,1009.61
2017-10-28T21:05:03.596Z,1009.5
2017-10-28T21:10:03.222Z,1009.32
2017-10-28T21:15:03.577Z,1009.01
2017-10-28T21:20:03.006Z,1009
2017-10-28T21:25:03.458Z,1008.84
2017-10-28T21:30:03.192Z,1008.67
2017-10-28T21:35:02.653Z,1008.45
2017-10-28T21:40:03.131Z,1008.41
2017-10-28T21:45:03.631Z,1008.42
2017-10-28T21:50:03.172Z,1008.22
2017-10-28T21:55:02.591Z,1008.35
2017-10-28T22:00:02.945Z,1008.3
2017-10-28T22:05:03.626Z,1008.18
2017-10-28T22:10:03.160Z,1008.01
2017-10-28T22:15:03.521Z,1007.81
2017-10-28T22:20:02.946Z,1007.65
2017-10-28T22:25:03.447Z,1007.63
2017-10-28T22:30:02.921Z,1007.55
2017-10-28T22:35:03.391Z,1007.46
2017-10-28T22:40:02.961Z,1007.37
2017-10-28T22:45:03.494Z,1007.45
2017-10-28T22:50:02.948Z,1007.49
2017-10-28T22:55:03.376Z,1007.27
2017-10-28T23:00:03.796Z,1007.14
2017-10-28T23:05:03.414Z,1007.09
2017-10-28T23:10:03.496Z,1007.01
2017-10-28T23:15:02.892Z,1006.95
2017-10-28T23:20:03.476Z,1006.8
2017-10-28T23:25:02.977Z,1006.74
2017-10-28T23:30:03.507Z,1006.54
2017-10-28T23:35:02.952Z,1006.42
2017-10-28T23:40:03.593Z,1006.6
2017-10-28T23:45:03.012Z,1006.48
2017-10-28T23:50:03.479Z,1006.41
2017-10-28T23:55:02.849Z,1006.43
